Time;durP1;ratioP1;P1;durP2;ratioP2;P2;SDS_P1;SDS_P2;PMS_P1;PMS_P2;Temp;Humidity;BMP_temperature;BMP_pressure;BME280_temperature;BME280_humidity;BME280_pressure;Samples;Min_cycle;Max_cycle;Signal;HPM_P1;HPM_P2
2022/06/19 00:01:29;;;;;;;8.88;2.22;;;14.60;99.90;;;;;;5051692;28;20048;-80
2022/06/19 00:04:12;;;;;;;12.00;3.45;;;14.50;99.90;;;;;;5051119;28;20459;-80
2022/06/19 00:06:39;;;;;;;10.68;2.95;;;14.50;99.90;;;;;;5037933;28;20053;-79
2022/06/19 00:09:08;;;;;;;8.95;2.90;;;14.50;99.90;;;;;;5051660;28;20044;-79
2022/06/19 00:11:34;;;;;;;8.20;2.22;;;14.50;99.90;;;;;;5052162;28;20044;-79
2022/06/19 00:14:01;;;;;;;9.88;2.40;;;14.50;99.90;;;;;;5056904;28;20045;-79
2022/06/19 00:16:26;;;;;;;8.35;2.03;;;14.40;99.90;;;;;;5055032;28;20060;-79
2022/06/19 00:18:52;;;;;;;6.88;1.80;;;14.40;99.90;;;;;;5038159;28;20045;-80
2022/06/19 00:21:18;;;;;;;7.72;1.80;;;14.40;99.90;;;;;;5058555;28;20877;-80
2022/06/19 00:23:45;;;;;;;9.88;2.38;;;14.40;99.90;;;;;;5062001;28;20147;-80
2022/06/19 00:26:14;;;;;;;8.95;1.80;;;14.40;99.90;;;;;;5042350;28;20043;-80
2022/06/19 00:28:46;;;;;;;7.45;2.20;;;14.40;99.90;;;;;;5060167;28;20120;-80
2022/06/19 00:31:12;;;;;;;7.85;1.75;;;14.40;99.90;;;;;;5057879;28;20067;-80
2022/06/19 00:33:38;;;;;;;7.18;2.30;;;14.40;99.90;;;;;;5041849;28;20093;-80
2022/06/19 00:36:04;;;;;;;7.07;1.80;;;14.80;99.90;;;;;;5059425;28;20036;-80
2022/06/19 00:38:30;;;;;;;6.38;1.73;;;14.30;99.90;;;;;;5041630;28;20044;-80
2022/06/19 00:41:04;;;;;;;5.95;1.90;;;14.50;99.90;;;;;;5044404;28;20037;-79
2022/06/19 00:43:29;;;;;;;8.25;1.85;;;14.40;99.90;;;;;;5061882;28;20496;-79
2022/06/19 00:46:03;;;;;;;8.07;1.80;;;14.50;99.90;;;;;;5041111;28;20508;-80
2022/06/19 00:48:37;;;;;;;9.15;2.20;;;14.50;99.90;;;;;;5063638;28;20052;-80
2022/06/19 00:51:05;;;;;;;10.48;2.17;;;14.60;99.90;;;;;;5044639;28;20053;-80
2022/06/19 00:53:40;;;;;;;7.18;2.15;;;14.60;99.90;;;;;;5063650;28;20052;-80
2022/06/19 00:56:11;;;;;;;8.45;2.13;;;14.60;99.90;;;;;;5061097;28;20094;-80
2022/06/19 00:58:40;;;;;;;10.90;1.70;;;14.60;99.90;;;;;;5034215;28;20045;-80
2022/06/19 01:01:09;;;;;;;10.93;1.83;;;14.50;99.90;;;;;;5045092;28;20048;-80
2022/06/19 01:03:55;;;;;;;10.30;2.10;;;14.50;99.90;;;;;;5059720;28;20122;-80
2022/06/19 01:06:22;;;;;;;9.82;2.15;;;14.50;99.90;;;;;;5060967;28;20049;-80
2022/06/19 01:08:48;;;;;;;10.80;2.38;;;14.50;99.90;;;;;;5043694;28;20488;-80
2022/06/19 01:11:20;;;;;;;8.43;2.15;;;14.60;99.90;;;;;;5059336;28;20051;-81
2022/06/19 01:13:50;;;;;;;10.55;2.15;;;14.50;99.90;;;;;;5062477;28;20056;-80
2022/06/19 01:16:16;;;;;;;8.40;2.00;;;14.50;99.90;;;;;;5041705;28;20053;-81
2022/06/19 01:18:42;;;;;;;10.85;2.10;;;14.40;99.90;;;;;;5050528;28;20489;-80
2022/06/19 01:21:28;;;;;;;10.35;2.00;;;14.50;99.90;;;;;;5050965;28;20041;-80
2022/06/19 01:24:23;;;;;;;9.65;2.67;;;14.50;99.90;;;;;;5050999;28;20037;-80
2022/06/19 01:26:53;;;;;;;9.70;2.13;;;14.40;99.90;;;;;;5041528;28;20044;-80
2022/06/19 01:29:19;;;;;;;13.13;2.13;;;14.40;99.90;;;;;;5037814;28;20053;-80
2022/06/19 01:31:53;;;;;;;11.60;2.55;;;14.30;99.90;;;;;;5041250;28;20037;-80
2022/06/19 01:34:35;;;;;;;9.90;2.20;;;14.30;99.90;;;;;;5051227;28;20503;-79
2022/06/19 01:37:04;;;;;;;10.57;2.33;;;14.30;99.90;;;;;;5046908;28;20056;-80
2022/06/19 01:39:37;;;;;;;11.00;2.45;;;14.30;99.90;;;;;;5040772;28;20048;-80
2022/06/19 01:42:04;;;;;;;10.35;2.17;;;14.30;99.90;;;;;;5047550;28;20045;-80
2022/06/19 01:44:31;;;;;;;11.68;2.10;;;14.30;99.90;;;;;;5033149;28;20116;-80
2022/06/19 01:46:57;;;;;;;12.73;2.05;;;14.30;99.90;;;;;;5050842;28;20045;-81
2022/06/19 01:49:23;;;;;;;9.48;2.13;;;14.30;99.90;;;;;;5051509;28;20053;-81
2022/06/19 01:51:51;;;;;;;10.63;2.30;;;14.30;99.90;;;;;;5051629;28;20378;-80
2022/06/19 01:54:21;;;;;;;8.15;2.28;;;14.20;99.90;;;;;;5050293;28;20443;-81
2022/06/19 01:56:50;;;;;;;10.95;2.00;;;14.30;99.90;;;;;;5040340;28;20103;-80
2022/06/19 01:59:16;;;;;;;9.70;2.20;;;14.30;99.90;;;;;;5051088;28;20037;-80
2022/06/19 02:01:42;;;;;;;8.73;1.98;;;14.30;99.90;;;;;;5050772;28;20078;-80
2022/06/19 02:04:08;;;;;;;9.50;1.90;;;14.30;99.90;;;;;;5041492;28;20041;-80
2022/06/19 02:06:47;;;;;;;8.63;2.38;;;14.20;99.90;;;;;;5040793;28;20036;-80
2022/06/19 02:09:17;;;;;;;10.20;2.00;;;14.20;99.90;;;;;;5050471;28;20041;-80
2022/06/19 02:11:43;;;;;;;9.40;2.60;;;14.40;99.90;;;;;;5051060;28;20120;-80
2022/06/19 02:14:11;;;;;;;6.85;1.85;;;14.20;99.90;;;;;;5040775;28;20077;-80
2022/06/19 02:16:40;;;;;;;8.35;2.20;;;14.20;99.90;;;;;;5053022;28;20052;-80
2022/06/19 02:19:06;;;;;;;8.85;2.53;;;14.20;99.90;;;;;;5061035;28;20048;-80
2022/06/19 02:21:48;;;;;;;5.28;1.80;;;14.20;99.90;;;;;;5062055;28;20040;-80
2022/06/19 02:24:20;;;;;;;6.50;1.95;;;14.20;99.90;;;;;;5063581;28;20048;-80
2022/06/19 02:26:48;;;;;;;8.23;1.90;;;14.20;99.90;;;;;;5043948;28;21488;-80
2022/06/19 02:29:16;;;;;;;4.75;1.30;;;14.20;99.90;;;;;;5045472;28;20396;-79
2022/06/19 02:31:49;;;;;;;9.95;2.20;;;14.50;99.90;;;;;;5065410;28;20385;-80
2022/06/19 02:34:29;;;;;;;8.18;1.60;;;14.20;99.90;;;;;;5045673;28;20071;-80
2022/06/19 02:37:00;;;;;;;14.82;2.88;;;14.10;99.90;;;;;;5040909;28;20045;-80
2022/06/19 02:40:05;;;;;;;13.02;2.22;;;14.10;99.90;;;;;;5044456;28;20041;-79
2022/06/19 02:42:36;;;;;;;9.43;1.98;;;14.40;99.90;;;;;;5060056;28;20102;-80
2022/06/19 02:45:19;;;;;;;10.65;2.55;;;14.00;99.90;;;;;;5046381;28;20053;-79
2022/06/19 02:47:46;;;;;;;11.77;2.63;;;13.90;99.90;;;;;;5065289;28;20496;-82
2022/06/19 02:50:18;;;;;;;7.13;1.90;;;13.70;99.90;;;;;;5062026;28;20048;-81
2022/06/19 02:52:45;;;;;;;11.45;2.35;;;13.60;99.90;;;;;;5047352;28;20059;-82
2022/06/19 02:55:11;;;;;;;11.40;2.05;;;13.50;99.90;;;;;;5062814;28;20040;-82
2022/06/19 02:57:38;;;;;;;9.18;2.03;;;13.80;99.90;;;;;;5060450;28;20049;-81
2022/06/19 03:00:06;;;;;;;12.82;2.80;;;14.20;99.90;;;;;;5063582;28;20443;-81
2022/06/19 03:02:32;;;;;;;9.48;2.17;;;13.20;99.90;;;;;;5062824;28;20503;-83
2022/06/19 03:05:02;;;;;;;;;;;13.10;99.90;;;;;;5043300;28;20045;-83
2022/06/19 03:07:29;;;;;;;7.05;1.85;;;13.00;99.90;;;;;;5063447;28;19920;-82
2022/06/19 03:09:55;;;;;;;12.27;1.73;;;12.90;99.90;;;;;;5063588;28;20487;-83
2022/06/19 03:12:21;;;;;;;7.85;1.95;;;12.80;99.90;;;;;;5062310;28;20124;-83
2022/06/19 03:14:48;;;;;;;9.10;1.88;;;13.10;99.90;;;;;;5047266;28;20036;-83
2022/06/19 03:17:15;;;;;;;9.75;1.60;;;12.80;99.90;;;;;;5052739;28;20052;-83
2022/06/19 03:19:42;;;;;;;6.97;1.80;;;12.80;99.90;;;;;;5052447;28;20545;-83
2022/06/19 03:22:08;;;;;;;8.13;2.10;;;13.00;99.90;;;;;;5053095;28;20052;-83
2022/06/19 03:24:34;;;;;;;8.30;2.10;;;12.50;99.90;;;;;;5052117;28;20052;-83
2022/06/19 03:26:59;;;;;;;;;;;12.50;99.90;;;;;;5053735;28;20041;-83
2022/06/19 03:29:25;;;;;;;8.70;1.70;;;12.50;99.90;;;;;;5044186;28;19921;-83
2022/06/19 03:31:51;;;;;;;11.05;2.05;;;12.40;99.90;;;;;;5051671;28;20044;-83
2022/06/19 03:34:19;;;;;;;4.93;1.45;;;12.30;99.90;;;;;;5052968;28;20045;-84
2022/06/19 03:36:45;;;;;;;8.57;2.17;;;13.40;99.90;;;;;;5052497;28;20037;-83
2022/06/19 03:39:10;;;;;;;;;;;12.30;99.90;;;;;;5042823;28;20043;-83
2022/06/19 03:41:37;;;;;;;7.93;1.98;;;12.90;99.90;;;;;;5053333;28;19921;-83
2022/06/19 03:44:03;;;;;;;10.15;3.08;;;12.30;99.90;;;;;;5043124;28;20041;-82
2022/06/19 03:46:29;;;;;;;6.90;1.70;;;12.20;99.90;;;;;;5042612;28;20378;-82
2022/06/19 03:48:54;;;;;;;;;;;12.20;99.90;;;;;;5053563;28;20052;-82
2022/06/19 03:51:23;;;;;;;9.98;1.80;;;12.40;99.90;;;;;;5052536;28;19921;-82
2022/06/19 03:53:53;;;;;;;8.07;1.95;;;12.20;99.90;;;;;;5052168;28;20045;-82
2022/06/19 03:56:30;;;;;;;14.00;2.08;;;12.20;99.90;;;;;;5052514;28;20037;-82
2022/06/19 03:58:57;;;;;;;9.38;2.50;;;12.20;99.90;;;;;;5044110;28;20090;-83
2022/06/19 04:01:30;;;;;;;10.88;2.08;;;12.90;99.90;;;;;;5051440;28;20029;-83
2022/06/19 04:03:57;;;;;;;11.05;2.55;;;12.60;99.90;;;;;;5052310;28;20132;-82
2022/06/19 04:06:29;;;;;;;9.23;2.72;;;13.30;99.90;;;;;;5051667;28;20033;-83
2022/06/19 04:08:55;;;;;;;5.25;1.95;;;12.20;99.90;;;;;;5043301;28;20052;-83
2022/06/19 04:11:22;;;;;;;9.52;2.25;;;12.20;99.90;;;;;;5051806;28;20044;-84
2022/06/19 04:13:49;;;;;;;6.70;1.80;;;12.20;99.90;;;;;;5051305;28;20041;-86
2022/06/19 04:16:21;;;;;;;10.52;1.73;;;12.20;99.90;;;;;;5044523;28;20044;-85
2022/06/19 04:18:48;;;;;;;8.63;1.60;;;12.20;99.90;;;;;;5061433;28;20049;-86
2022/06/19 04:21:16;;;;;;;9.57;2.22;;;12.20;99.90;;;;;;5062044;28;20123;-84
2022/06/19 04:23:42;;;;;;;6.00;1.80;;;13.10;99.90;;;;;;5061615;28;20032;-86
2022/06/19 04:26:10;;;;;;;11.48;2.03;;;12.20;99.90;;;;;;5055437;28;20385;-86
2022/06/19 04:28:36;;;;;;;12.55;2.20;;;12.60;99.90;;;;;;5064111;28;20113;-87
2022/06/19 04:31:02;;;;;;;12.35;2.15;;;12.10;99.90;;;;;;5064156;28;20043;-86
2022/06/19 04:33:28;;;;;;;;;;;12.50;99.90;;;;;;5043497;28;20041;-85
2022/06/19 04:35:53;;;;;;;12.73;2.00;;;12.10;99.90;;;;;;5063267;28;19975;-87
2022/06/19 04:38:19;;;;;;;;;;;12.00;99.90;;;;;;5040948;28;20470;-87
2022/06/19 04:40:48;;;;;;;9.90;1.80;;;12.20;99.90;;;;;;5064080;28;19921;-87
2022/06/19 04:43:13;;;;;;;8.57;1.80;;;12.00;99.90;;;;;;5061529;28;20487;-89
2022/06/19 04:45:40;;;;;;;;;;;12.60;99.90;;;;;;5066194;28;20108;-87
2022/06/19 04:48:06;;;;;;;7.55;1.85;;;12.10;99.90;;;;;;5065724;28;20277;-87
2022/06/19 04:50:32;;;;;;;9.07;1.70;;;12.10;99.90;;;;;;5064761;28;20044;-89
2022/06/19 04:53:00;;;;;;;;;;;12.10;99.90;;;;;;5061804;28;20048;-88
2022/06/19 04:55:26;;;;;;;8.10;1.60;;;12.90;99.90;;;;;;5068864;28;19927;-87
2022/06/19 04:57:52;;;;;;;;;;;12.10;99.90;;;;;;5061917;28;20032;-88
2022/06/19 05:00:20;;;;;;;4.60;1.50;;;12.10;99.90;;;;;;5057720;28;19927;-88
2022/06/19 05:02:50;;;;;;;6.55;1.40;;;12.00;99.90;;;;;;5059267;28;20037;-88
2022/06/19 05:05:18;;;;;;;7.35;1.67;;;12.10;99.90;;;;;;5047023;28;20396;-87
2022/06/19 05:07:44;;;;;;;5.65;1.30;;;13.10;99.90;;;;;;5064659;28;20055;-85
2022/06/19 05:10:10;;;;;;;;;;;12.70;99.90;;;;;;5059307;28;20116;-86
2022/06/19 05:12:36;;;;;;;6.72;1.50;;;12.00;99.90;;;;;;5042096;28;19927;-87
2022/06/19 05:15:03;;;;;;;11.35;1.85;;;12.10;99.90;;;;;;5047903;28;20040;-87
2022/06/19 05:17:28;;;;;;;7.70;1.15;;;12.10;99.90;;;;;;5041174;28;20449;-87
2022/06/19 05:19:54;;;;;;;;;;;12.10;99.90;;;;;;5042796;28;20488;-88
2022/06/19 05:22:19;;;;;;;3.85;1.15;;;12.10;99.90;;;;;;5051118;28;20414;-87
2022/06/19 05:24:45;;;;;;;;;;;12.10;99.90;;;;;;5051243;28;20095;-87
2022/06/19 05:27:11;;;;;;;4.55;1.40;;;12.20;99.90;;;;;;5050850;28;19928;-87
2022/06/19 05:29:38;;;;;;;5.20;1.35;;;12.20;99.90;;;;;;5041838;28;20288;-87
2022/06/19 05:32:05;;;;;;;6.00;1.50;;;12.30;99.90;;;;;;5050867;28;20044;-88
2022/06/19 05:34:42;;;;;;;6.32;1.42;;;12.30;99.90;;;;;;5041744;28;20041;-88
2022/06/19 05:37:08;;;;;;;5.10;1.40;;;13.40;99.90;;;;;;5039927;28;20052;-87
2022/06/19 05:39:33;;;;;;;;;;;12.80;99.90;;;;;;5051225;28;20044;-87
2022/06/19 05:41:59;;;;;;;5.53;1.80;;;12.40;99.90;;;;;;5051572;28;20015;-88
2022/06/19 05:44:25;;;;;;;;;;;13.30;99.90;;;;;;5051835;28;20037;-87
2022/06/19 05:46:52;;;;;;;6.35;1.48;;;12.40;99.90;;;;;;5050846;28;20372;-85
2022/06/19 05:49:17;;;;;;;10.30;1.80;;;12.40;99.90;;;;;;5041092;28;20071;-87
2022/06/19 05:51:43;;;;;;;;;;;12.40;99.90;;;;;;5050240;28;20481;-87
2022/06/19 05:54:09;;;;;;;5.80;1.17;;;14.00;99.90;;;;;;5041221;28;19928;-86
2022/06/19 05:56:35;;;;;;;8.55;1.73;;;12.60;99.90;;;;;;5054168;28;20041;-86
2022/06/19 05:59:00;;;;;;;;;;;13.10;99.90;;;;;;5047558;28;20041;-87
2022/06/19 06:01:28;;;;;;;9.10;1.55;;;13.00;99.90;;;;;;5045887;28;20331;-87
2022/06/19 06:03:54;;;;;;;6.05;1.73;;;13.40;99.90;;;;;;5044364;28;20488;-87
2022/06/19 06:06:27;;;;;;;5.72;1.40;;;13.00;99.90;;;;;;5053408;28;20045;-86
2022/06/19 06:08:54;;;;;;;6.70;1.52;;;13.00;99.90;;;;;;5055073;28;20033;-86
2022/06/19 06:11:24;;;;;;;4.43;1.65;;;13.00;99.90;;;;;;5053733;28;20049;-87
2022/06/19 06:13:49;;;;;;;4.28;1.50;;;13.10;99.90;;;;;;5054216;28;20121;-85
2022/06/19 06:16:16;;;;;;;;;;;13.10;99.90;;;;;;5054580;28;20120;-85
2022/06/19 06:18:42;;;;;;;7.13;1.60;;;13.20;99.90;;;;;;5054250;28;20342;-85
2022/06/19 06:21:12;;;;;;;5.90;1.30;;;13.20;99.90;;;;;;5053313;28;20120;-85
2022/06/19 06:23:38;;;;;;;7.18;1.55;;;13.40;99.90;;;;;;5054260;28;20558;-85
2022/06/19 06:26:11;;;;;;;;;;;13.30;99.90;;;;;;5054272;28;20044;-85
2022/06/19 06:28:42;;;;;;;5.78;1.70;;;13.40;99.90;;;;;;5053278;28;19928;-85
2022/06/19 06:31:07;;;;;;;4.60;1.40;;;14.20;99.90;;;;;;5040987;28;20095;-85
2022/06/19 06:33:33;;;;;;;;;;;14.10;99.90;;;;;;5044893;28;20061;-85
2022/06/19 06:35:59;;;;;;;3.72;1.02;;;13.80;99.90;;;;;;5052957;28;19925;-84
2022/06/19 06:38:26;;;;;;;4.88;1.50;;;13.80;99.90;;;;;;5044797;28;20091;-85
2022/06/19 06:40:52;;;;;;;5.22;1.23;;;13.90;99.90;;;;;;5053350;28;20045;-85
2022/06/19 06:43:18;;;;;;;4.03;1.20;;;13.90;99.90;;;;;;5053429;28;20107;-86
2022/06/19 06:45:44;;;;;;;5.45;1.40;;;13.90;99.90;;;;;;5053303;28;20083;-85
2022/06/19 06:48:10;;;;;;;;;;;13.90;99.90;;;;;;5053451;28;20077;-85
2022/06/19 06:50:38;;;;;;;3.78;1.20;;;13.80;99.90;;;;;;5053747;28;19920;-85
2022/06/19 06:53:04;;;;;;;5.40;1.30;;;13.90;99.90;;;;;;5053398;28;20048;-85
2022/06/19 06:55:29;;;;;;;;;;;14.60;99.90;;;;;;5053614;28;20374;-85
2022/06/19 06:57:55;;;;;;;3.83;1.48;;;14.20;99.90;;;;;;5053570;28;19925;-84
2022/06/19 07:00:21;;;;;;;;;;;14.10;99.90;;;;;;5053678;28;20041;-85
2022/06/19 07:02:47;;;;;;;5.75;1.30;;;14.80;99.90;;;;;;5052767;28;20328;-84
2022/06/19 07:05:13;;;;;;;5.05;1.38;;;14.10;99.90;;;;;;5053172;28;20072;-84
2022/06/19 07:07:39;;;;;;;;;;;14.20;99.90;;;;;;5053360;28;20064;-83
2022/06/19 07:10:05;;;;;;;5.80;1.73;;;14.10;99.90;;;;;;5052848;28;19963;-84
2022/06/19 07:12:31;;;;;;;6.00;1.60;;;14.10;99.90;;;;;;5053250;28;20033;-85
2022/06/19 07:14:57;;;;;;;;;;;14.10;99.90;;;;;;5052457;28;20143;-88
2022/06/19 07:17:23;;;;;;;6.73;1.40;;;14.10;99.90;;;;;;5051611;28;19921;-89
2022/06/19 07:19:48;;;;;;;;;;;14.10;99.90;;;;;;5054003;28;20055;-85
2022/06/19 07:22:16;;;;;;;5.85;1.42;;;14.00;99.90;;;;;;5052642;28;19928;-84
2022/06/19 07:24:46;;;;;;;5.75;1.38;;;14.10;99.90;;;;;;5052352;28;20040;-83
2022/06/19 07:27:12;;;;;;;7.25;1.38;;;14.00;99.90;;;;;;5043114;28;20118;-83
2022/06/19 07:29:45;;;;;;;4.75;1.20;;;14.00;99.90;;;;;;5039124;28;20069;-82
2022/06/19 07:32:12;;;;;;;6.28;1.42;;;14.10;99.90;;;;;;5042153;28;20477;-86
2022/06/19 07:34:39;;;;;;;4.80;1.40;;;14.10;99.90;;;;;;5043926;28;20045;-82
2022/06/19 07:37:05;;;;;;;6.03;1.40;;;14.40;99.90;;;;;;5052088;28;20101;-81
2022/06/19 07:39:32;;;;;;;3.22;1.10;;;14.20;99.90;;;;;;5048490;28;20112;-81
2022/06/19 07:42:01;;;;;;;6.45;1.30;;;14.20;99.90;;;;;;5046717;28;20408;-83
2022/06/19 07:44:28;;;;;;;5.13;1.20;;;14.40;99.90;;;;;;5050978;28;20405;-76
2022/06/19 07:52:28;;;;;;;7.50;1.23;;;14.70;99.90;;;;;;5052168;28;20497;-72
2022/06/19 07:54:53;;;;;;;4.20;1.15;;;14.80;99.90;;;;;;5042754;28;20048;-75
2022/06/19 07:57:19;;;;;;;3.40;1.05;;;14.90;99.90;;;;;;5051968;28;20880;-91
2022/06/19 07:59:45;;;;;;;4.60;1.30;;;14.90;99.90;;;;;;5041914;28;20095;-75
2022/06/19 08:02:11;;;;;;;4.25;1.20;;;14.90;99.90;;;;;;5052116;28;20432;-73
2022/06/19 08:04:36;;;;;;;4.05;1.20;;;15.00;99.90;;;;;;5051740;28;20440;-76
2022/06/19 08:07:02;;;;;;;5.22;1.42;;;14.90;99.90;;;;;;5051278;28;20048;-72
2022/06/19 08:09:28;;;;;;;3.72;1.20;;;14.80;99.90;;;;;;5051984;28;20037;-76
2022/06/19 08:11:53;;;;;;;2.83;1.27;;;14.90;99.90;;;;;;5057333;28;20031;-83
2022/06/19 08:14:19;;;;;;;4.95;1.25;;;15.00;99.90;;;;;;5051387;28;20084;-80
2022/06/19 08:16:47;;;;;;;4.95;1.20;;;15.90;99.90;;;;;;5051833;28;20045;-80
2022/06/19 08:19:12;;;;;;;5.70;1.30;;;15.00;99.90;;;;;;5042193;28;20051;-76
2022/06/19 08:21:38;;;;;;;4.20;1.20;;;15.10;99.90;;;;;;5051006;28;20033;-75
2022/06/19 08:24:04;;;;;;;6.25;1.00;;;15.20;99.90;;;;;;5051667;28;20049;-72
2022/06/19 08:26:33;;;;;;;3.38;1.20;;;15.20;99.90;;;;;;5040590;28;20120;-72
2022/06/19 08:29:01;;;;;;;4.28;1.27;;;15.20;99.90;;;;;;5052008;28;20396;-74
2022/06/19 08:31:28;;;;;;;6.70;1.40;;;15.30;99.90;;;;;;5041244;28;20084;-74
2022/06/19 08:33:55;;;;;;;4.90;1.17;;;15.30;99.90;;;;;;5040553;28;20044;-76
2022/06/19 08:36:21;;;;;;;5.18;1.23;;;15.30;99.90;;;;;;5037648;28;20044;-74
2022/06/19 08:38:51;;;;;;;3.22;1.35;;;16.10;99.90;;;;;;5051457;28;20497;-75
2022/06/19 08:41:48;;;;;;;3.50;1.35;;;15.30;99.90;;;;;;5050895;28;20041;-73
2022/06/19 08:44:26;;;;;;;;;;;15.50;99.90;;;;;;5042415;28;20059;-84
2022/06/19 08:47:03;;;;;;;2.42;0.85;;;15.60;99.90;;;;;;5037624;28;20031;-75
2022/06/19 08:50:10;;;;;;;5.22;1.02;;;15.70;99.90;;;;;;5049468;28;20045;-75
2022/06/19 08:52:59;;;;;;;3.97;1.30;;;15.70;99.90;;;;;;5041311;28;20037;-86
2022/06/19 08:55:33;;;;;;;2.78;1.20;;;15.80;99.90;;;;;;5035071;28;20295;-73
2022/06/19 08:58:09;;;;;;;7.30;1.17;;;16.00;99.90;;;;;;5041632;28;20056;-75
2022/06/19 09:00:55;;;;;;;4.78;1.00;;;16.00;99.90;;;;;;5051113;28;20064;-78
2022/06/19 09:06:54;;;;;;;4.22;1.10;;;15.70;99.90;;;;;;5039493;28;20045;-75
2022/06/19 09:09:55;;;;;;;4.18;1.25;;;15.80;99.90;;;;;;5050732;28;20036;-73
2022/06/19 09:13:00;;;;;;;4.30;1.38;;;15.80;99.90;;;;;;5051107;28;20064;-72
2022/06/19 09:15:58;;;;;;;3.47;1.00;;;15.90;99.90;;;;;;5051271;28;20040;-73
2022/06/19 09:18:42;;;;;;;3.63;1.08;;;15.90;99.90;;;;;;5050975;28;20060;-72
2022/06/19 09:21:11;;;;;;;3.80;1.02;;;16.00;99.90;;;;;;5041412;28;20052;-73
2022/06/19 09:24:02;;;;;;;5.50;1.27;;;16.20;99.90;;;;;;5050229;28;20057;-74
2022/06/19 09:26:44;;;;;;;4.03;1.00;;;16.40;99.90;;;;;;5050647;28;20068;-72
2022/06/19 09:29:14;;;;;;;4.45;1.35;;;16.40;99.90;;;;;;5050965;28;20048;-71
2022/06/19 09:31:48;;;;;;;4.20;1.10;;;16.50;99.90;;;;;;5054091;28;20086;-72
2022/06/19 09:34:18;;;;;;;4.85;1.55;;;16.40;99.90;;;;;;5052185;28;20048;-72
2022/06/19 09:36:56;;;;;;;5.22;1.25;;;16.60;99.90;;;;;;5050144;28;20052;-72
2022/06/19 09:39:47;;;;;;;2.80;0.90;;;16.90;99.90;;;;;;5054856;28;20128;-72
2022/06/19 09:42:27;;;;;;;3.45;1.23;;;17.20;99.90;;;;;;5041530;28;20041;-76
2022/06/19 09:45:06;;;;;;;3.60;1.02;;;17.60;99.90;;;;;;5040131;28;20060;-74
2022/06/19 09:47:50;;;;;;;4.30;1.40;;;18.20;99.90;;;;;;5054742;28;20120;-75
2022/06/19 09:50:31;;;;;;;4.93;1.63;;;18.50;99.90;;;;;;5044691;28;20045;-75
2022/06/19 09:53:35;;;;;;;4.07;1.30;;;18.60;99.90;;;;;;5045214;28;20091;-79
2022/06/19 09:56:16;;;;;;;5.25;1.10;;;19.00;99.90;;;;;;5044857;28;20045;-76
2022/06/19 09:58:53;;;;;;;4.93;1.50;;;19.20;99.90;;;;;;5038988;28;20048;-76
2022/06/19 10:01:22;;;;;;;4.75;1.25;;;19.40;99.90;;;;;;5054300;28;20069;-76
2022/06/19 10:03:57;;;;;;;3.22;1.08;;;19.40;99.90;;;;;;5044862;28;20040;-76
2022/06/19 10:06:32;;;;;;;4.15;1.20;;;19.40;99.90;;;;;;5052660;28;20049;-76
2022/06/19 10:09:04;;;;;;;8.45;2.00;;;19.50;99.90;;;;;;5054833;28;20048;-76
2022/06/19 10:11:34;;;;;;;2.78;1.00;;;19.30;99.80;;;;;;5054211;28;20124;-76
2022/06/19 10:14:14;;;;;;;4.68;1.17;;;19.00;99.90;;;;;;5053735;28;20091;-76
2022/06/19 10:16:44;;;;;;;3.80;1.13;;;19.10;99.90;;;;;;5053280;28;20052;-76
2022/06/19 10:19:25;;;;;;;4.22;1.20;;;19.10;99.90;;;;;;5064526;28;20048;-76
2022/06/19 10:22:14;;;;;;;4.00;1.35;;;19.00;99.90;;;;;;5064498;28;20029;-76
2022/06/19 10:25:04;;;;;;;5.20;1.20;;;19.40;99.90;;;;;;5061952;28;20053;-76
2022/06/19 10:27:33;;;;;;;3.05;0.95;;;20.00;99.90;;;;;;5061919;28;20040;-76
2022/06/19 10:30:07;;;;;;;4.68;1.23;;;20.10;99.20;;;;;;5043895;28;20047;-74
2022/06/19 10:32:59;;;;;;;5.85;1.15;;;20.60;99.40;;;;;;5040461;28;20048;-75
2022/06/19 10:35:47;;;;;;;2.88;1.00;;;20.70;98.50;;;;;;5064166;28;20092;-76
2022/06/19 10:38:16;;;;;;;4.75;1.40;;;20.50;97.00;;;;;;5063198;28;20041;-76
2022/06/19 10:42:00;;;;;;;3.33;1.08;;;20.50;98.00;;;;;;5064132;28;20041;-75
2022/06/19 10:44:18;;;;;;;4.47;1.13;;;20.40;96.30;;;;;;5057509;28;20048;-75
2022/06/19 10:46:53;;;;;;;3.50;1.10;;;20.60;97.70;;;;;;5064004;28;20037;-76
2022/06/19 10:49:29;;;;;;;5.18;1.30;;;20.80;98.30;;;;;;5044356;28;20048;-76
2022/06/19 10:52:37;;;;;;;3.42;1.10;;;21.10;96.60;;;;;;5065133;28;20403;-76
2022/06/19 10:55:32;;;;;;;4.53;1.30;;;21.40;97.50;;;;;;5035598;28;20111;-76
2022/06/19 10:58:07;;;;;;;5.72;1.38;;;21.30;96.10;;;;;;5057992;28;20103;-76
2022/06/19 11:00:34;;;;;;;5.05;1.10;;;21.60;96.10;;;;;;5059239;28;20052;-76
2022/06/19 11:06:12;;;;;;;5.25;1.88;;;21.30;94.90;;;;;;5058716;28;20045;-75
2022/06/19 11:08:43;;;;;;;5.78;1.83;;;21.20;95.80;;;;;;5063558;28;20093;-75
2022/06/19 11:11:14;;;;;;;4.85;1.63;;;21.10;96.70;;;;;;5063711;28;20049;-75
2022/06/19 11:14:09;;;;;;;5.82;1.30;;;20.90;96.70;;;;;;5064189;28;20395;-75
2022/06/19 11:16:59;;;;;;;4.82;1.38;;;20.90;96.70;;;;;;5041733;28;20049;-75
2022/06/19 11:19:36;;;;;;;5.40;1.58;;;20.70;96.00;;;;;;5039063;28;20103;-76
2022/06/19 11:22:06;;;;;;;2.83;1.00;;;20.40;96.10;;;;;;5062295;28;20167;-75
2022/06/19 11:24:33;;;;;;;4.15;1.27;;;20.20;97.20;;;;;;5063026;28;20032;-74
2022/06/19 11:27:00;;;;;;;4.43;1.15;;;20.10;97.10;;;;;;5046893;28;20169;-75
2022/06/19 11:29:31;;;;;;;5.00;1.50;;;20.00;97.00;;;;;;5060700;28;20876;-75
2022/06/19 11:32:04;;;;;;;4.07;1.40;;;20.00;96.70;;;;;;5064278;28;20043;-77
2022/06/19 11:34:51;;;;;;;5.72;1.40;;;19.90;97.10;;;;;;5062072;28;20049;-77
2022/06/19 11:37:33;;;;;;;4.70;1.40;;;19.60;96.90;;;;;;5043392;28;20037;-76
2022/06/19 11:39:59;;;;;;;7.28;1.33;;;19.50;97.60;;;;;;5043723;28;20041;-76
2022/06/19 11:42:38;;;;;;;6.70;1.63;;;19.20;98.10;;;;;;5064094;28;20091;-76
2022/06/19 11:45:28;;;;;;;6.40;1.95;;;19.10;98.20;;;;;;5061527;28;20044;-76
2022/06/19 11:47:57;;;;;;;6.25;1.70;;;19.00;98.70;;;;;;5039880;28;20037;-76
2022/06/19 11:50:31;;;;;;;6.43;1.65;;;19.20;99.10;;;;;;5058870;28;20051;-75
2022/06/19 11:53:06;;;;;;;5.28;1.50;;;19.30;99.30;;;;;;5042984;28;20053;-75
2022/06/19 11:55:35;;;;;;;7.70;1.70;;;19.70;98.30;;;;;;5045547;28;20072;-75
2022/06/19 11:58:03;;;;;;;6.80;1.35;;;20.00;98.30;;;;;;5060813;28;20048;-75
2022/06/19 12:00:32;;;;;;;5.28;1.77;;;20.20;98.30;;;;;;5044903;28;20051;-75
2022/06/19 12:03:01;;;;;;;5.47;1.60;;;20.40;97.10;;;;;;5062543;28;20087;-75
2022/06/19 12:05:32;;;;;;;4.63;1.50;;;20.50;97.40;;;;;;5061068;28;20087;-75
2022/06/19 12:08:24;;;;;;;5.85;1.60;;;20.70;97.10;;;;;;5063296;28;20507;-77
2022/06/19 12:10:54;;;;;;;6.22;2.08;;;20.80;95.30;;;;;;5057652;28;20112;-77
2022/06/19 12:13:25;;;;;;;5.13;1.50;;;20.50;96.40;;;;;;5044604;28;20491;-76
2022/06/19 12:16:23;;;;;;;5.95;1.60;;;20.50;95.90;;;;;;5043215;28;20049;-76
2022/06/19 12:18:49;;;;;;;4.30;1.33;;;20.50;95.90;;;;;;5033359;28;20451;-75
2022/06/19 12:21:25;;;;;;;5.55;1.50;;;20.50;96.30;;;;;;5063434;28;20102;-76
2022/06/19 12:24:12;;;;;;;7.55;1.90;;;20.90;96.10;;;;;;5060893;28;20055;-76
2022/06/19 12:26:56;;;;;;;10.50;3.47;;;20.90;95.30;;;;;;5060108;28;20492;-78
2022/06/19 12:29:33;;;;;;;6.63;2.70;;;21.00;95.40;;;;;;5064318;28;20041;-79
2022/06/19 12:32:21;;;;;;;8.40;1.95;;;21.10;95.20;;;;;;5043959;28;20132;-76
2022/06/19 12:34:50;;;;;;;5.05;1.70;;;21.30;95.90;;;;;;5059564;28;20089;-74
2022/06/19 12:37:23;;;;;;;8.18;2.10;;;21.40;94.80;;;;;;5059711;28;20048;-77
2022/06/19 12:39:49;;;;;;;3.97;1.40;;;21.70;95.10;;;;;;5062088;28;20051;-74
2022/06/19 12:42:46;;;;;;;3.60;1.13;;;22.20;94.60;;;;;;5059828;28;20041;-72
2022/06/19 12:45:35;;;;;;;4.88;1.60;;;22.40;94.00;;;;;;5038040;28;20041;-74
2022/06/19 12:48:46;;;;;;;4.85;1.50;;;22.30;94.30;;;;;;5055103;28;20120;-76
2022/06/19 12:51:41;;;;;;;5.78;1.70;;;22.50;95.20;;;;;;5032604;28;20973;-76
2022/06/19 12:54:27;;;;;;;4.43;1.90;;;22.80;94.50;;;;;;5004196;28;20068;-78
2022/06/19 12:57:13;;;;;;;5.82;1.75;;;23.00;94.30;;;;;;5038700;28;20049;-75
2022/06/19 13:00:08;;;;;;;7.82;1.63;;;23.00;94.90;;;;;;5041177;28;20055;-74
2022/06/19 13:02:50;;;;;;;5.60;1.80;;;23.10;94.30;;;;;;5053561;28;20095;-75
2022/06/19 13:05:19;;;;;;;8.10;1.92;;;22.60;94.60;;;;;;5057240;28;20045;-74
2022/06/19 13:08:14;;;;;;;8.65;2.13;;;22.50;95.10;;;;;;5034377;28;20125;-74
2022/06/19 13:10:58;;;;;;;4.47;1.50;;;22.70;94.70;;;;;;5027786;28;20416;-74
2022/06/19 13:13:45;;;;;;;7.97;2.00;;;22.90;94.50;;;;;;5061658;28;20040;-76
2022/06/19 13:16:25;;;;;;;5.32;1.70;;;23.10;95.10;;;;;;5047147;28;20126;-72
2022/06/19 13:19:09;;;;;;;8.55;2.00;;;23.10;93.50;;;;;;5041444;28;20048;-75
2022/06/19 13:21:46;;;;;;;9.13;2.20;;;22.70;93.90;;;;;;5057995;28;20032;-74
2022/06/19 13:24:35;;;;;;;5.70;1.60;;;22.30;94.70;;;;;;5035479;28;20428;-82
2022/06/19 13:27:10;;;;;;;8.38;2.17;;;22.10;95.30;;;;;;5055621;28;20492;-83
2022/06/19 13:29:57;;;;;;;7.78;2.38;;;22.00;95.60;;;;;;5051038;28;20037;-83
2022/06/19 13:32:58;;;;;;;8.55;2.15;;;21.70;95.10;;;;;;5057919;28;20056;-84